sensor_id;sensor_type;location;lat;lon;timestamp;P1;P2;P0
44933;PMS3003;30667;43.614;1.442;2022-07-29T00:01:18;4.25;4.25;2.00
44933;PMS3003;30667;43.614;1.442;2022-07-29T00:03:43;5.50;5.25;3.50
44933;PMS3003;30667;43.614;1.442;2022-07-29T00:06:09;5.00;5.00;2.00
44933;PMS3003;30667;43.614;1.442;2022-07-29T00:08:34;5.25;5.00;2.00
44933;PMS3003;30667;43.614;1.442;2022-07-29T00:10:59;3.50;3.50;1.25
44933;PMS3003;30667;43.614;1.442;2022-07-29T00:13:25;4.25;4.25;2.00
44933;PMS3003;30667;43.614;1.442;2022-07-29T00:15:50;4.00;4.00;2.00
44933;PMS3003;30667;43.614;1.442;2022-07-29T00:18:15;4.00;3.50;1.00
44933;PMS3003;30667;43.614;1.442;2022-07-29T00:20:41;4.00;4.00;1.50
44933;PMS3003;30667;43.614;1.442;2022-07-29T00:23:06;5.50;4.75;1.50
44933;PMS3003;30667;43.614;1.442;2022-07-29T00:25:32;3.75;3.75;2.00
44933;PMS3003;30667;43.614;1.442;2022-07-29T00:27:57;4.75;4.00;2.00
44933;PMS3003;30667;43.614;1.442;2022-07-29T00:30:22;4.00;3.50;1.75
44933;PMS3003;30667;43.614;1.442;2022-07-29T00:32:48;5.00;5.00;2.00
44933;PMS3003;30667;43.614;1.442;2022-07-29T00:35:13;5.75;5.75;2.00
44933;PMS3003;30667;43.614;1.442;2022-07-29T00:37:57;5.00;5.00;2.00
44933;PMS3003;30667;43.614;1.442;2022-07-29T00:40:23;5.75;4.75;2.00
44933;PMS3003;30667;43.614;1.442;2022-07-29T00:42:49;4.25;3.75;1.50
44933;PMS3003;30667;43.614;1.442;2022-07-29T00:45:17;5.00;5.00;2.00
44933;PMS3003;30667;43.614;1.442;2022-07-29T00:47:43;5.40;4.80;2.00
44933;PMS3003;30667;43.614;1.442;2022-07-29T00:50:10;5.00;4.25;2.00
44933;PMS3003;30667;43.614;1.442;2022-07-29T00:52:37;5.00;5.00;2.60
44933;PMS3003;30667;43.614;1.442;2022-07-29T00:55:05;4.00;3.80;1.80
44933;PMS3003;30667;43.614;1.442;2022-07-29T00:57:32;5.00;4.00;1.00
44933;PMS3003;30667;43.614;1.442;2022-07-29T00:59:58;4.00;4.00;2.00
44933;PMS3003;30667;43.614;1.442;2022-07-29T01:02:24;4.75;4.00;2.00
44933;PMS3003;30667;43.614;1.442;2022-07-29T01:04:49;4.25;4.25;1.00
44933;PMS3003;30667;43.614;1.442;2022-07-29T01:07:16;5.60;5.20;2.00
44933;PMS3003;30667;43.614;1.442;2022-07-29T01:09:43;4.00;4.00;1.40
44933;PMS3003;30667;43.614;1.442;2022-07-29T01:12:11;4.60;4.00;1.00
44933;PMS3003;30667;43.614;1.442;2022-07-29T01:14:38;3.40;3.40;2.00
44933;PMS3003;30667;43.614;1.442;2022-07-29T01:17:20;5.80;4.80;2.00
44933;PMS3003;30667;43.614;1.442;2022-07-29T01:28:31;5.00;4.00;1.00
44933;PMS3003;30667;43.614;1.442;2022-07-29T01:31:04;4.00;4.00;1.60
44933;PMS3003;30667;43.614;1.442;2022-07-29T01:33:34;4.60;4.60;1.60
44933;PMS3003;30667;43.614;1.442;2022-07-29T01:36:29;6.00;4.40;2.00
44933;PMS3003;30667;43.614;1.442;2022-07-29T01:39:23;5.20;5.20;2.00
44933;PMS3003;30667;43.614;1.442;2022-07-29T01:42:02;3.60;3.60;1.40
44933;PMS3003;30667;43.614;1.442;2022-07-29T01:44:36;3.80;3.00;1.00
44933;PMS3003;30667;43.614;1.442;2022-07-29T01:47:11;4.80;4.00;2.00
44933;PMS3003;30667;43.614;1.442;2022-07-29T01:49:41;5.20;4.60;1.80
44933;PMS3003;30667;43.614;1.442;2022-07-29T01:52:26;3.40;3.40;1.40
44933;PMS3003;30667;43.614;1.442;2022-07-29T01:54:57;3.00;3.00;1.80
44933;PMS3003;30667;43.614;1.442;2022-07-29T01:57:28;3.80;3.80;1.60
44933;PMS3003;30667;43.614;1.442;2022-07-29T01:59:57;4.20;3.60;1.80
44933;PMS3003;30667;43.614;1.442;2022-07-29T02:02:25;4.00;3.00;1.00
44933;PMS3003;30667;43.614;1.442;2022-07-29T02:04:52;3.00;3.00;1.00
44933;PMS3003;30667;43.614;1.442;2022-07-29T02:07:20;4.80;4.80;1.60
44933;PMS3003;30667;43.614;1.442;2022-07-29T02:09:47;4.00;3.60;1.00
44933;PMS3003;30667;43.614;1.442;2022-07-29T02:12:16;4.00;4.00;1.40
44933;PMS3003;30667;43.614;1.442;2022-07-29T02:14:44;5.40;4.40;1.40
44933;PMS3003;30667;43.614;1.442;2022-07-29T02:17:12;4.40;4.40;2.00
44933;PMS3003;30667;43.614;1.442;2022-07-29T02:19:40;4.00;3.80;1.60
44933;PMS3003;30667;43.614;1.442;2022-07-29T02:22:09;4.00;4.00;2.00
44933;PMS3003;30667;43.614;1.442;2022-07-29T02:24:37;3.00;3.00;0.80
44933;PMS3003;30667;43.614;1.442;2022-07-29T02:27:05;4.60;3.20;1.00
44933;PMS3003;30667;43.614;1.442;2022-07-29T02:29:32;5.00;4.20;2.00
44933;PMS3003;30667;43.614;1.442;2022-07-29T02:32:00;3.80;3.00;1.80
44933;PMS3003;30667;43.614;1.442;2022-07-29T02:34:28;5.60;3.80;1.00
44933;PMS3003;30667;43.614;1.442;2022-07-29T02:36:55;4.80;4.80;2.00
44933;PMS3003;30667;43.614;1.442;2022-07-29T02:39:21;5.20;4.00;1.60
44933;PMS3003;30667;43.614;1.442;2022-07-29T02:41:55;4.00;3.00;1.00
44933;PMS3003;30667;43.614;1.442;2022-07-29T02:44:26;3.80;3.20;1.00
44933;PMS3003;30667;43.614;1.442;2022-07-29T02:46:58;3.75;3.75;1.25
44933;PMS3003;30667;43.614;1.442;2022-07-29T02:50:15;4.00;3.60;1.60
44933;PMS3003;30667;43.614;1.442;2022-07-29T03:00:24;4.00;4.00;1.75
44933;PMS3003;30667;43.614;1.442;2022-07-29T03:02:53;3.60;3.60;1.00
44933;PMS3003;30667;43.614;1.442;2022-07-29T03:05:21;4.60;3.80;1.80
44933;PMS3003;30667;43.614;1.442;2022-07-29T03:07:51;4.20;4.00;1.40
44933;PMS3003;30667;43.614;1.442;2022-07-29T03:10:21;4.00;4.00;2.00
44933;PMS3003;30667;43.614;1.442;2022-07-29T03:12:47;4.20;4.00;2.00
44933;PMS3003;30667;43.614;1.442;2022-07-29T03:15:13;3.00;3.00;1.00
44933;PMS3003;30667;43.614;1.442;2022-07-29T03:17:39;3.60;3.60;1.80
44933;PMS3003;30667;43.614;1.442;2022-07-29T03:20:06;3.40;3.40;2.00
44933;PMS3003;30667;43.614;1.442;2022-07-29T03:22:33;3.00;3.00;1.00
44933;PMS3003;30667;43.614;1.442;2022-07-29T03:25:08;4.40;3.60;1.60
44933;PMS3003;30667;43.614;1.442;2022-07-29T03:27:38;4.00;4.00;1.00
44933;PMS3003;30667;43.614;1.442;2022-07-29T03:30:04;4.75;4.75;2.00
44933;PMS3003;30667;43.614;1.442;2022-07-29T03:32:30;4.00;3.80;1.40
44933;PMS3003;30667;43.614;1.442;2022-07-29T03:34:55;3.00;3.00;1.00
44933;PMS3003;30667;43.614;1.442;2022-07-29T03:37:20;5.00;4.00;2.00
44933;PMS3003;30667;43.614;1.442;2022-07-29T03:39:46;4.25;4.00;2.00
44933;PMS3003;30667;43.614;1.442;2022-07-29T03:42:14;4.80;4.00;1.60
44933;PMS3003;30667;43.614;1.442;2022-07-29T03:44:42;2.80;2.80;0.80
44933;PMS3003;30667;43.614;1.442;2022-07-29T03:47:10;5.40;4.60;2.40
44933;PMS3003;30667;43.614;1.442;2022-07-29T03:49:39;5.20;4.60;1.40
44933;PMS3003;30667;43.614;1.442;2022-07-29T03:52:05;4.00;4.00;2.00
44933;PMS3003;30667;43.614;1.442;2022-07-29T03:54:31;4.00;3.50;2.00
44933;PMS3003;30667;43.614;1.442;2022-07-29T03:56:57;3.80;3.80;1.40
44933;PMS3003;30667;43.614;1.442;2022-07-29T03:59:26;4.00;3.60;1.80
44933;PMS3003;30667;43.614;1.442;2022-07-29T04:01:52;5.60;4.40;1.00
44933;PMS3003;30667;43.614;1.442;2022-07-29T04:04:18;4.00;4.00;1.60
44933;PMS3003;30667;43.614;1.442;2022-07-29T04:06:45;4.00;4.00;2.00
44933;PMS3003;30667;43.614;1.442;2022-07-29T04:09:11;6.40;5.00;2.80
44933;PMS3003;30667;43.614;1.442;2022-07-29T04:11:38;5.20;4.40;2.80
44933;PMS3003;30667;43.614;1.442;2022-07-29T04:14:04;4.80;4.80;2.00
44933;PMS3003;30667;43.614;1.442;2022-07-29T04:16:30;5.25;5.25;2.25
44933;PMS3003;30667;43.614;1.442;2022-07-29T04:18:56;5.50;5.00;2.75
44933;PMS3003;30667;43.614;1.442;2022-07-29T04:21:21;7.00;5.75;2.75
44933;PMS3003;30667;43.614;1.442;2022-07-29T04:23:46;5.50;5.50;3.00
44933;PMS3003;30667;43.614;1.442;2022-07-29T04:26:15;4.40;4.20;2.00
44933;PMS3003;30667;43.614;1.442;2022-07-29T04:28:43;5.00;4.00;2.00
44933;PMS3003;30667;43.614;1.442;2022-07-29T04:31:10;4.80;4.80;2.80
44933;PMS3003;30667;43.614;1.442;2022-07-29T04:33:36;4.80;4.80;2.00
44933;PMS3003;30667;43.614;1.442;2022-07-29T04:36:02;5.25;5.00;3.00
44933;PMS3003;30667;43.614;1.442;2022-07-29T04:38:27;6.25;5.00;3.25
44933;PMS3003;30667;43.614;1.442;2022-07-29T04:40:53;6.50;5.75;3.75
44933;PMS3003;30667;43.614;1.442;2022-07-29T04:43:18;6.00;5.00;3.00
44933;PMS3003;30667;43.614;1.442;2022-07-29T04:45:43;5.75;5.75;2.00
44933;PMS3003;30667;43.614;1.442;2022-07-29T04:48:09;5.00;5.00;3.00
44933;PMS3003;30667;43.614;1.442;2022-07-29T04:50:37;6.25;6.00;3.00
44933;PMS3003;30667;43.614;1.442;2022-07-29T04:53:03;6.00;5.20;2.60
44933;PMS3003;30667;43.614;1.442;2022-07-29T04:55:28;5.00;5.00;3.50
44933;PMS3003;30667;43.614;1.442;2022-07-29T04:57:54;5.00;5.00;2.00
44933;PMS3003;30667;43.614;1.442;2022-07-29T05:00:19;6.75;5.75;2.50
44933;PMS3003;30667;43.614;1.442;2022-07-29T05:02:45;6.00;5.50;3.00
44933;PMS3003;30667;43.614;1.442;2022-07-29T05:05:10;4.25;4.00;3.00
44933;PMS3003;30667;43.614;1.442;2022-07-29T05:07:36;5.50;5.00;3.00
44933;PMS3003;30667;43.614;1.442;2022-07-29T05:10:01;5.00;5.00;3.00
44933;PMS3003;30667;43.614;1.442;2022-07-29T05:12:27;5.00;4.00;2.00
44933;PMS3003;30667;43.614;1.442;2022-07-29T05:14:52;6.25;5.25;3.00
44933;PMS3003;30667;43.614;1.442;2022-07-29T05:17:18;6.50;6.50;3.75
44933;PMS3003;30667;43.614;1.442;2022-07-29T05:19:43;6.75;6.00;4.00
44933;PMS3003;30667;43.614;1.442;2022-07-29T05:22:09;7.50;7.50;4.00
44933;PMS3003;30667;43.614;1.442;2022-07-29T05:24:34;7.75;6.25;3.00
44933;PMS3003;30667;43.614;1.442;2022-07-29T05:27:00;7.00;6.00;3.75
44933;PMS3003;30667;43.614;1.442;2022-07-29T05:29:25;5.75;5.75;3.00
44933;PMS3003;30667;43.614;1.442;2022-07-29T05:31:51;8.00;6.75;3.00
44933;PMS3003;30667;43.614;1.442;2022-07-29T05:34:18;7.20;6.60;3.40
44933;PMS3003;30667;43.614;1.442;2022-07-29T05:36:44;7.40;7.00;3.00
44933;PMS3003;30667;43.614;1.442;2022-07-29T05:39:10;5.60;5.60;3.00
44933;PMS3003;30667;43.614;1.442;2022-07-29T05:41:36;7.80;7.80;4.00
44933;PMS3003;30667;43.614;1.442;2022-07-29T05:44:01;8.50;6.00;4.00
44933;PMS3003;30667;43.614;1.442;2022-07-29T05:46:27;6.00;6.00;4.00
44933;PMS3003;30667;43.614;1.442;2022-07-29T05:48:53;6.60;6.40;4.00
44933;PMS3003;30667;43.614;1.442;2022-07-29T05:51:18;6.80;6.40;4.00
44933;PMS3003;30667;43.614;1.442;2022-07-29T05:53:44;6.75;5.00;2.25
44933;PMS3003;30667;43.614;1.442;2022-07-29T05:56:09;7.75;7.50;4.00
44933;PMS3003;30667;43.614;1.442;2022-07-29T05:58:35;6.00;6.00;3.00
44933;PMS3003;30667;43.614;1.442;2022-07-29T06:01:01;8.00;6.75;3.00
44933;PMS3003;30667;43.614;1.442;2022-07-29T06:03:27;7.00;6.00;3.00
44933;PMS3003;30667;43.614;1.442;2022-07-29T06:05:52;6.40;6.00;4.00
44933;PMS3003;30667;43.614;1.442;2022-07-29T06:08:18;6.75;6.50;4.00
44933;PMS3003;30667;43.614;1.442;2022-07-29T06:10:43;7.50;7.00;4.00
44933;PMS3003;30667;43.614;1.442;2022-07-29T06:13:10;7.60;7.60;4.00
44933;PMS3003;30667;43.614;1.442;2022-07-29T06:15:36;8.80;7.00;4.00
44933;PMS3003;30667;43.614;1.442;2022-07-29T06:18:14;7.75;7.00;4.00
44933;PMS3003;30667;43.614;1.442;2022-07-29T06:20:45;8.40;7.60;5.00
44933;PMS3003;30667;43.614;1.442;2022-07-29T06:23:19;6.00;6.00;3.00
44933;PMS3003;30667;43.614;1.442;2022-07-29T06:25:47;8.00;7.60;4.80
44933;PMS3003;30667;43.614;1.442;2022-07-29T06:28:16;8.60;7.00;5.00
44933;PMS3003;30667;43.614;1.442;2022-07-29T06:31:02;6.40;6.40;4.40
44933;PMS3003;30667;43.614;1.442;2022-07-29T06:33:40;7.80;7.00;4.00
44933;PMS3003;30667;43.614;1.442;2022-07-29T06:36:37;6.00;6.00;3.80
44933;PMS3003;30667;43.614;1.442;2022-07-29T06:39:20;8.00;7.20;4.00
44933;PMS3003;30667;43.614;1.442;2022-07-29T06:45:05;6.40;6.00;4.00
44933;PMS3003;30667;43.614;1.442;2022-07-29T06:50:44;6.60;6.60;4.20
44933;PMS3003;30667;43.614;1.442;2022-07-29T06:53:31;7.60;7.00;4.00
44933;PMS3003;30667;43.614;1.442;2022-07-29T06:56:38;7.80;6.80;3.60
44933;PMS3003;30667;43.614;1.442;2022-07-29T06:59:50;6.60;6.00;3.20
44933;PMS3003;30667;43.614;1.442;2022-07-29T07:13:10;8.00;7.00;4.00
44933;PMS3003;30667;43.614;1.442;2022-07-29T07:15:49;9.20;7.80;5.00
44933;PMS3003;30667;43.614;1.442;2022-07-29T07:18:33;9.00;8.20;4.00
44933;PMS3003;30667;43.614;1.442;2022-07-29T07:21:25;8.40;8.20;4.20
44933;PMS3003;30667;43.614;1.442;2022-07-29T07:24:25;7.00;6.60;4.00
44933;PMS3003;30667;43.614;1.442;2022-07-29T07:26:59;8.00;7.40;4.00
44933;PMS3003;30667;43.614;1.442;2022-07-29T07:30:11;7.60;7.60;5.00
44933;PMS3003;30667;43.614;1.442;2022-07-29T07:33:02;8.00;7.40;4.40
44933;PMS3003;30667;43.614;1.442;2022-07-29T07:35:33;8.00;8.00;4.00
44933;PMS3003;30667;43.614;1.442;2022-07-29T07:41:44;7.20;7.00;4.00
44933;PMS3003;30667;43.614;1.442;2022-07-29T07:44:40;9.00;9.00;5.00
44933;PMS3003;30667;43.614;1.442;2022-07-29T07:47:31;8.40;8.40;5.00
44933;PMS3003;30667;43.614;1.442;2022-07-29T07:50:10;7.00;7.00;4.20
44933;PMS3003;30667;43.614;1.442;2022-07-29T07:59:16;9.60;8.20;5.00
44933;PMS3003;30667;43.614;1.442;2022-07-29T08:02:00;10.60;10.00;6.00
44933;PMS3003;30667;43.614;1.442;2022-07-29T08:05:15;9.00;8.20;5.40
44933;PMS3003;30667;43.614;1.442;2022-07-29T08:08:22;7.00;7.00;5.00
44933;PMS3003;30667;43.614;1.442;2022-07-29T08:10:59;8.40;8.40;5.00
44933;PMS3003;30667;43.614;1.442;2022-07-29T08:13:28;11.20;10.00;5.80
44933;PMS3003;30667;43.614;1.442;2022-07-29T08:16:07;9.80;9.40;6.00
44933;PMS3003;30667;43.614;1.442;2022-07-29T08:18:40;8.40;8.40;5.80
44933;PMS3003;30667;43.614;1.442;2022-07-29T08:21:15;9.40;9.40;6.00
44933;PMS3003;30667;43.614;1.442;2022-07-29T08:23:45;7.20;7.20;5.00
44933;PMS3003;30667;43.614;1.442;2022-07-29T08:26:16;10.20;8.00;5.00
44933;PMS3003;30667;43.614;1.442;2022-07-29T08:28:47;9.80;9.60;5.00
44933;PMS3003;30667;43.614;1.442;2022-07-29T08:31:16;9.20;8.60;5.00
44933;PMS3003;30667;43.614;1.442;2022-07-29T08:33:42;8.60;7.80;5.20
44933;PMS3003;30667;43.614;1.442;2022-07-29T08:36:13;7.80;7.00;4.00
44933;PMS3003;30667;43.614;1.442;2022-07-29T08:38:43;8.60;8.00;6.00
44933;PMS3003;30667;43.614;1.442;2022-07-29T08:41:11;9.00;9.00;4.60
44933;PMS3003;30667;43.614;1.442;2022-07-29T08:43:37;8.50;7.50;4.50
44933;PMS3003;30667;43.614;1.442;2022-07-29T09:16:07;10.20;9.40;6.60
44933;PMS3003;30667;43.614;1.442;2022-07-29T09:21:06;9.60;9.00;5.20
44933;PMS3003;30667;43.614;1.442;2022-07-29T09:24:05;8.20;8.00;5.00
44933;PMS3003;30667;43.614;1.442;2022-07-29T09:26:43;8.20;7.00;4.00
44933;PMS3003;30667;43.614;1.442;2022-07-29T09:29:14;10.20;9.00;6.00
44933;PMS3003;30667;43.614;1.442;2022-07-29T09:31:42;9.40;9.00;5.00
44933;PMS3003;30667;43.614;1.442;2022-07-29T09:34:09;9.00;8.20;5.00
44933;PMS3003;30667;43.614;1.442;2022-07-29T09:36:40;10.00;9.40;6.00
44933;PMS3003;30667;43.614;1.442;2022-07-29T09:39:10;11.20;10.00;5.80
44933;PMS3003;30667;43.614;1.442;2022-07-29T09:41:52;9.00;9.00;6.00
44933;PMS3003;30667;43.614;1.442;2022-07-29T09:44:20;11.00;9.80;6.00
44933;PMS3003;30667;43.614;1.442;2022-07-29T09:46:56;10.60;9.80;7.00
44933;PMS3003;30667;43.614;1.442;2022-07-29T09:49:23;11.00;10.00;6.20
44933;PMS3003;30667;43.614;1.442;2022-07-29T09:52:06;8.40;8.40;5.60
44933;PMS3003;30667;43.614;1.442;2022-07-29T09:54:33;7.20;7.20;4.60
44933;PMS3003;30667;43.614;1.442;2022-07-29T09:57:24;7.80;7.80;4.20
44933;PMS3003;30667;43.614;1.442;2022-07-29T10:00:05;8.00;8.00;4.80
44933;PMS3003;30667;43.614;1.442;2022-07-29T10:02:32;8.40;8.00;4.60
44933;PMS3003;30667;43.614;1.442;2022-07-29T10:05:00;7.80;7.00;4.60
44933;PMS3003;30667;43.614;1.442;2022-07-29T10:07:26;8.40;8.00;5.00
44933;PMS3003;30667;43.614;1.442;2022-07-29T10:10:08;7.00;7.00;3.80
44933;PMS3003;30667;43.614;1.442;2022-07-29T10:12:34;7.00;6.25;4.00
44933;PMS3003;30667;43.614;1.442;2022-07-29T10:15:15;6.60;6.60;4.00
44933;PMS3003;30667;43.614;1.442;2022-07-29T10:17:40;7.00;7.00;4.40
44933;PMS3003;30667;43.614;1.442;2022-07-29T10:20:07;8.00;6.80;3.80
44933;PMS3003;30667;43.614;1.442;2022-07-29T10:22:33;9.00;8.80;4.80
44933;PMS3003;30667;43.614;1.442;2022-07-29T10:24:59;6.75;6.75;3.00
44933;PMS3003;30667;43.614;1.442;2022-07-29T10:27:24;7.00;7.00;5.00
44933;PMS3003;30667;43.614;1.442;2022-07-29T10:29:50;7.00;6.00;4.00
44933;PMS3003;30667;43.614;1.442;2022-07-29T10:35:23;7.80;7.00;4.20
44933;PMS3003;30667;43.614;1.442;2022-07-29T10:43:51;8.00;7.80;4.80
44933;PMS3003;30667;43.614;1.442;2022-07-29T10:46:20;7.20;7.20;5.00
44933;PMS3003;30667;43.614;1.442;2022-07-29T10:57:13;6.60;6.40;4.00
44933;PMS3003;30667;43.614;1.442;2022-07-29T10:59:40;7.60;7.60;4.80
44933;PMS3003;30667;43.614;1.442;2022-07-29T11:05:00;8.20;8.00;5.00
44933;PMS3003;30667;43.614;1.442;2022-07-29T11:10:48;8.00;8.00;5.00
44933;PMS3003;30667;43.614;1.442;2022-07-29T11:16:11;8.40;8.00;4.80
44933;PMS3003;30667;43.614;1.442;2022-07-29T11:19:38;7.00;7.00;4.60
44933;PMS3003;30667;43.614;1.442;2022-07-29T11:21:39;10.00;10.00;6.00
44933;PMS3003;30667;43.614;1.442;2022-07-29T11:24:12;9.40;8.40;6.00
44933;PMS3003;30667;43.614;1.442;2022-07-29T11:27:07;10.00;9.60;6.80
44933;PMS3003;30667;43.614;1.442;2022-07-29T11:29:52;9.20;8.20;4.80
44933;PMS3003;30667;43.614;1.442;2022-07-29T11:32:20;7.20;7.20;4.60
44933;PMS3003;30667;43.614;1.442;2022-07-29T11:34:47;9.60;8.40;5.40
44933;PMS3003;30667;43.614;1.442;2022-07-29T11:51:33;6.60;6.60;4.00
44933;PMS3003;30667;43.614;1.442;2022-07-29T11:54:56;6.00;6.00;3.00
44933;PMS3003;30667;43.614;1.442;2022-07-29T11:58:10;8.60;8.00;4.40
44933;PMS3003;30667;43.614;1.442;2022-07-29T12:01:00;7.60;7.00;5.00
44933;PMS3003;30667;43.614;1.442;2022-07-29T12:03:40;8.80;7.80;4.60
44933;PMS3003;30667;43.614;1.442;2022-07-29T12:09:42;8.80;6.60;4.00
44933;PMS3003;30667;43.614;1.442;2022-07-29T12:12:35;8.00;7.20;4.20
44933;PMS3003;30667;43.614;1.442;2022-07-29T12:15:17;6.80;6.80;4.80
44933;PMS3003;30667;43.614;1.442;2022-07-29T12:21:20;7.80;7.20;4.20
44933;PMS3003;30667;43.614;1.442;2022-07-29T12:24:26;6.40;6.40;3.80
44933;PMS3003;30667;43.614;1.442;2022-07-29T12:27:19;7.80;7.20;4.00
44933;PMS3003;30667;43.614;1.442;2022-07-29T12:29:58;8.80;7.80;4.80
44933;PMS3003;30667;43.614;1.442;2022-07-29T12:38:59;6.80;6.80;4.00
44933;PMS3003;30667;43.614;1.442;2022-07-29T12:41:38;7.00;6.80;4.00
44933;PMS3003;30667;43.614;1.442;2022-07-29T12:44:21;7.80;7.40;4.60
44933;PMS3003;30667;43.614;1.442;2022-07-29T12:47:05;7.60;6.80;3.60
44933;PMS3003;30667;43.614;1.442;2022-07-29T12:49:43;7.00;7.00;4.60
44933;PMS3003;30667;43.614;1.442;2022-07-29T12:52:30;6.20;6.20;3.20
44933;PMS3003;30667;43.614;1.442;2022-07-29T13:09:00;7.00;7.00;4.00
44933;PMS3003;30667;43.614;1.442;2022-07-29T13:12:33;8.00;7.00;4.00
44933;PMS3003;30667;43.614;1.442;2022-07-29T13:28:44;7.00;7.00;4.40
44933;PMS3003;30667;43.614;1.442;2022-07-29T13:31:29;6.40;6.40;4.00
44933;PMS3003;30667;43.614;1.442;2022-07-29T13:34:02;6.40;5.20;2.80
44933;PMS3003;30667;43.614;1.442;2022-07-29T13:39:51;5.80;5.20;2.80
44933;PMS3003;30667;43.614;1.442;2022-07-29T13:42:29;4.80;4.80;2.40
44933;PMS3003;30667;43.614;1.442;2022-07-29T13:45:14;6.00;5.80;2.40
44933;PMS3003;30667;43.614;1.442;2022-07-29T13:50:43;6.40;5.80;3.40
44933;PMS3003;30667;43.614;1.442;2022-07-29T13:53:11;7.00;6.00;3.40
44933;PMS3003;30667;43.614;1.442;2022-07-29T13:56:27;6.40;6.40;3.20
44933;PMS3003;30667;43.614;1.442;2022-07-29T14:02:24;5.20;5.20;3.00
44933;PMS3003;30667;43.614;1.442;2022-07-29T14:05:15;5.40;5.40;3.00
44933;PMS3003;30667;43.614;1.442;2022-07-29T14:07:52;6.00;5.00;2.60
44933;PMS3003;30667;43.614;1.442;2022-07-29T14:10:17;6.00;6.00;3.00
44933;PMS3003;30667;43.614;1.442;2022-07-29T14:12:42;5.25;5.00;3.00
44933;PMS3003;30667;43.614;1.442;2022-07-29T14:15:08;6.00;6.00;3.00
44933;PMS3003;30667;43.614;1.442;2022-07-29T14:17:34;7.00;7.00;4.50
44933;PMS3003;30667;43.614;1.442;2022-07-29T14:19:59;5.00;5.00;2.00
44933;PMS3003;30667;43.614;1.442;2022-07-29T14:22:25;7.00;6.75;3.25
44933;PMS3003;30667;43.614;1.442;2022-07-29T14:24:50;5.00;5.00;3.00
44933;PMS3003;30667;43.614;1.442;2022-07-29T14:27:16;8.00;7.50;4.50
44933;PMS3003;30667;43.614;1.442;2022-07-29T14:29:41;6.50;6.50;3.75
44933;PMS3003;30667;43.614;1.442;2022-07-29T14:32:07;7.00;6.00;3.25
44933;PMS3003;30667;43.614;1.442;2022-07-29T14:34:35;7.00;6.20;3.00
44933;PMS3003;30667;43.614;1.442;2022-07-29T14:37:02;7.40;7.40;4.00
44933;PMS3003;30667;43.614;1.442;2022-07-29T14:39:30;5.60;5.60;2.80
44933;PMS3003;30667;43.614;1.442;2022-07-29T14:41:55;6.00;6.00;3.60
44933;PMS3003;30667;43.614;1.442;2022-07-29T14:44:21;5.75;5.50;4.00
44933;PMS3003;30667;43.614;1.442;2022-07-29T14:46:46;6.00;5.75;3.25
44933;PMS3003;30667;43.614;1.442;2022-07-29T14:49:12;6.00;5.00;3.00
44933;PMS3003;30667;43.614;1.442;2022-07-29T14:51:37;6.50;6.25;4.00
44933;PMS3003;30667;43.614;1.442;2022-07-29T14:54:03;7.50;7.00;4.00
44933;PMS3003;30667;43.614;1.442;2022-07-29T14:56:28;6.75;6.00;3.00
44933;PMS3003;30667;43.614;1.442;2022-07-29T14:58:55;6.60;6.60;4.00
44933;PMS3003;30667;43.614;1.442;2022-07-29T15:01:21;6.80;6.80;3.60
44933;PMS3003;30667;43.614;1.442;2022-07-29T15:03:46;8.00;7.00;3.25
44933;PMS3003;30667;43.614;1.442;2022-07-29T15:06:12;7.00;6.00;3.50
44933;PMS3003;30667;43.614;1.442;2022-07-29T15:08:37;6.75;6.75;3.00
44933;PMS3003;30667;43.614;1.442;2022-07-29T15:11:02;6.00;6.00;4.00
44933;PMS3003;30667;43.614;1.442;2022-07-29T15:13:28;7.00;6.00;3.00
44933;PMS3003;30667;43.614;1.442;2022-07-29T15:15:54;6.60;6.60;3.60
44933;PMS3003;30667;43.614;1.442;2022-07-29T15:18:20;7.00;7.00;3.00
44933;PMS3003;30667;43.614;1.442;2022-07-29T15:20:45;7.00;6.00;3.00
44933;PMS3003;30667;43.614;1.442;2022-07-29T15:23:11;7.00;7.00;3.80
44933;PMS3003;30667;43.614;1.442;2022-07-29T15:25:37;5.80;5.80;3.80
44933;PMS3003;30667;43.614;1.442;2022-07-29T15:28:03;6.00;5.00;3.00
44933;PMS3003;30667;43.614;1.442;2022-07-29T15:30:32;6.40;6.00;3.00
44933;PMS3003;30667;43.614;1.442;2022-07-29T15:32:59;6.80;6.80;3.80
44933;PMS3003;30667;43.614;1.442;2022-07-29T15:35:25;6.80;6.00;3.20
44933;PMS3003;30667;43.614;1.442;2022-07-29T15:37:50;5.50;5.25;3.00
44933;PMS3003;30667;43.614;1.442;2022-07-29T15:40:16;7.00;6.00;4.00
44933;PMS3003;30667;43.614;1.442;2022-07-29T15:42:41;7.25;7.25;4.00
44933;PMS3003;30667;43.614;1.442;2022-07-29T15:45:07;5.75;5.75;2.75
44933;PMS3003;30667;43.614;1.442;2022-07-29T15:47:46;7.00;5.40;2.40
44933;PMS3003;30667;43.614;1.442;2022-07-29T15:50:37;12.40;12.40;10.00
44933;PMS3003;30667;43.614;1.442;2022-07-29T15:53:03;7.00;7.00;4.00
44933;PMS3003;30667;43.614;1.442;2022-07-29T15:55:28;6.00;6.00;3.25
44933;PMS3003;30667;43.614;1.442;2022-07-29T15:57:54;6.00;5.00;2.75
44933;PMS3003;30667;43.614;1.442;2022-07-29T16:00:19;8.00;6.00;2.75
44933;PMS3003;30667;43.614;1.442;2022-07-29T16:02:46;5.00;5.00;3.00
44933;PMS3003;30667;43.614;1.442;2022-07-29T16:05:11;7.50;6.50;4.25
44933;PMS3003;30667;43.614;1.442;2022-07-29T16:07:37;7.00;6.00;3.00
44933;PMS3003;30667;43.614;1.442;2022-07-29T16:10:02;5.50;5.25;3.25
44933;PMS3003;30667;43.614;1.442;2022-07-29T16:12:28;7.00;6.75;4.00
44933;PMS3003;30667;43.614;1.442;2022-07-29T16:14:54;7.00;6.25;3.00
44933;PMS3003;30667;43.614;1.442;2022-07-29T16:17:19;6.00;6.00;3.00
44933;PMS3003;30667;43.614;1.442;2022-07-29T16:19:45;7.00;6.00;3.00
44933;PMS3003;30667;43.614;1.442;2022-07-29T16:22:28;6.50;6.50;4.50
44933;PMS3003;30667;43.614;1.442;2022-07-29T16:25:38;7.40;7.00;3.60
44933;PMS3003;30667;43.614;1.442;2022-07-29T16:28:04;7.00;6.00;4.00
44933;PMS3003;30667;43.614;1.442;2022-07-29T16:30:29;7.00;6.40;3.00
44933;PMS3003;30667;43.614;1.442;2022-07-29T16:32:55;7.40;6.00;3.20
44933;PMS3003;30667;43.614;1.442;2022-07-29T16:35:21;6.00;6.00;4.00
44933;PMS3003;30667;43.614;1.442;2022-07-29T16:37:46;7.25;7.00;3.75
44933;PMS3003;30667;43.614;1.442;2022-07-29T16:40:12;8.25;7.00;4.00
44933;PMS3003;30667;43.614;1.442;2022-07-29T16:42:37;9.00;8.00;4.00
44933;PMS3003;30667;43.614;1.442;2022-07-29T16:45:03;7.00;6.00;3.25
44933;PMS3003;30667;43.614;1.442;2022-07-29T16:47:29;6.00;6.00;3.00
44933;PMS3003;30667;43.614;1.442;2022-07-29T16:49:55;7.00;7.00;4.00
44933;PMS3003;30667;43.614;1.442;2022-07-29T16:53:21;5.25;5.25;3.00
44933;PMS3003;30667;43.614;1.442;2022-07-29T16:55:46;8.40;8.00;4.20
44933;PMS3003;30667;43.614;1.442;2022-07-29T16:58:29;8.40;7.00;3.80
44933;PMS3003;30667;43.614;1.442;2022-07-29T17:01:40;7.40;7.40;4.00
44933;PMS3003;30667;43.614;1.442;2022-07-29T17:10:10;7.60;7.00;3.80
44933;PMS3003;30667;43.614;1.442;2022-07-29T17:12:37;8.75;8.25;4.75
44933;PMS3003;30667;43.614;1.442;2022-07-29T17:15:04;7.00;6.20;3.20
44933;PMS3003;30667;43.614;1.442;2022-07-29T17:17:31;7.80;7.40;4.20
44933;PMS3003;30667;43.614;1.442;2022-07-29T17:19:57;6.25;6.00;4.00
44933;PMS3003;30667;43.614;1.442;2022-07-29T17:22:22;6.50;6.00;3.00
44933;PMS3003;30667;43.614;1.442;2022-07-29T17:24:48;7.00;6.50;4.50
44933;PMS3003;30667;43.614;1.442;2022-07-29T17:27:13;7.00;6.00;2.50
44933;PMS3003;30667;43.614;1.442;2022-07-29T17:29:39;6.80;6.00;3.60
44933;PMS3003;30667;43.614;1.442;2022-07-29T17:32:05;6.20;6.20;4.20
44933;PMS3003;30667;43.614;1.442;2022-07-29T17:34:33;8.20;7.40;4.60
44933;PMS3003;30667;43.614;1.442;2022-07-29T17:36:59;9.00;8.20;5.00
44933;PMS3003;30667;43.614;1.442;2022-07-29T17:39:24;9.00;8.25;4.25
44933;PMS3003;30667;43.614;1.442;2022-07-29T17:41:50;9.50;8.75;5.00